sensor_id;sensor_type;location;lat;lon;timestamp;pressure;altitude;pressure_sealevel;temperature;humidity
62712;BME280;48772;55.586;37.730;2023-02-01T00:00:19;98035.59;;;-0.01;100.00
62712;BME280;48772;55.586;37.730;2023-02-01T00:02:44;98090.03;;;0.35;100.00
62712;BME280;48772;55.586;37.730;2023-02-01T00:05:10;98092.84;;;0.32;100.00
62712;BME280;48772;55.586;37.730;2023-02-01T00:07:37;98062.09;;;0.22;100.00
62712;BME280;48772;55.586;37.730;2023-02-01T00:14:04;98049.69;;;0.11;100.00
62712;BME280;48772;55.586;37.730;2023-02-01T00:16:31;98064.81;;;0.20;100.00
62712;BME280;48772;55.586;37.730;2023-02-01T00:19:06;98067.72;;;0.16;100.00
62712;BME280;48772;55.586;37.730;2023-02-01T00:21:32;98087.69;;;0.31;100.00
62712;BME280;48772;55.586;37.730;2023-02-01T00:23:58;98093.69;;;0.33;100.00
62712;BME280;48772;55.586;37.730;2023-02-01T00:26:35;98080.34;;;0.23;100.00
62712;BME280;48772;55.586;37.730;2023-02-01T00:29:14;98080.34;;;0.23;100.00
62712;BME280;48772;55.586;37.730;2023-02-01T00:31:41;98040.25;;;-0.06;100.00
62712;BME280;48772;55.586;37.730;2023-02-01T00:34:08;97998.69;;;-0.24;100.00
62712;BME280;48772;55.586;37.730;2023-02-01T00:36:35;98090.13;;;0.34;100.00
62712;BME280;48772;55.586;37.730;2023-02-01T00:39:01;98037.25;;;0.00;100.00
62712;BME280;48772;55.586;37.730;2023-02-01T00:41:27;98073.44;;;0.22;100.00
62712;BME280;48772;55.586;37.730;2023-02-01T00:43:53;98068.75;;;0.13;100.00
62712;BME280;48772;55.586;37.730;2023-02-01T00:46:19;98082.56;;;0.29;100.00
62712;BME280;48772;55.586;37.730;2023-02-01T00:48:47;98082.47;;;0.31;100.00
62712;BME280;48772;55.586;37.730;2023-02-01T00:51:15;98051.75;;;0.06;100.00
62712;BME280;48772;55.586;37.730;2023-02-01T00:53:42;98067.34;;;0.22;100.00
62712;BME280;48772;55.586;37.730;2023-02-01T00:56:08;98088.38;;;0.34;100.00
62712;BME280;48772;55.586;37.730;2023-02-01T00:58:35;98087.50;;;0.34;100.00
62712;BME280;48772;55.586;37.730;2023-02-01T01:03:32;98079.03;;;0.30;100.00
62712;BME280;48772;55.586;37.730;2023-02-01T01:06:03;98090.03;;;0.35;100.00
62712;BME280;48772;55.586;37.730;2023-02-01T01:08:30;98077.13;;;0.32;100.00
62712;BME280;48772;55.586;37.730;2023-02-01T01:10:56;98079.84;;;0.31;100.00
62712;BME280;48772;55.586;37.730;2023-02-01T01:13:22;98096.13;;;0.36;100.00
62712;BME280;48772;55.586;37.730;2023-02-01T01:15:48;98080.88;;;0.28;100.00
62712;BME280;48772;55.586;37.730;2023-02-01T01:18:13;98096.22;;;0.34;100.00
62712;BME280;48772;55.586;37.730;2023-02-01T01:20:40;98073.22;;;0.25;100.00
62712;BME280;48772;55.586;37.730;2023-02-01T01:23:07;98080.88;;;0.28;100.00
62712;BME280;48772;55.586;37.730;2023-02-01T01:25:39;98101.66;;;0.31;100.00
62712;BME280;48772;55.586;37.730;2023-02-01T01:28:06;98117.19;;;0.34;100.00
62712;BME280;48772;55.586;37.730;2023-02-01T01:30:34;98114.56;;;0.34;100.00
62712;BME280;48772;55.586;37.730;2023-02-01T01:33:00;98062.41;;;0.03;100.00
62712;BME280;48772;55.586;37.730;2023-02-01T01:35:26;98108.28;;;0.37;100.00
62712;BME280;48772;55.586;37.730;2023-02-01T01:37:51;98087.25;;;0.24;100.00
62712;BME280;48772;55.586;37.730;2023-02-01T01:40:17;98064.66;;;0.09;100.00
62712;BME280;48772;55.586;37.730;2023-02-01T01:42:44;98101.66;;;0.31;100.00
62712;BME280;48772;55.586;37.730;2023-02-01T01:45:24;98109.34;;;0.34;100.00
62712;BME280;48772;55.586;37.730;2023-02-01T01:47:54;98095.03;;;0.26;100.00
62712;BME280;48772;55.586;37.730;2023-02-01T01:50:35;98082.53;;;0.17;100.00
62712;BME280;48772;55.586;37.730;2023-02-01T01:53:05;98089.69;;;0.27;100.00
62712;BME280;48772;55.586;37.730;2023-02-01T01:55:35;98060.47;;;0.07;100.00
62712;BME280;48772;55.586;37.730;2023-02-01T01:58:05;98066.53;;;0.07;100.00
62712;BME280;48772;55.586;37.730;2023-02-01T02:00:32;98103.03;;;0.37;100.00
62712;BME280;48772;55.586;37.730;2023-02-01T02:03:10;98036.56;;;-0.16;100.00
62712;BME280;48772;55.586;37.730;2023-02-01T02:05:37;98112.59;;;0.38;100.00
62712;BME280;48772;55.586;37.730;2023-02-01T02:08:03;98114.47;;;0.36;100.00
62712;BME280;48772;55.586;37.730;2023-02-01T02:10:30;98081.28;;;0.22;100.00
62712;BME280;48772;55.586;37.730;2023-02-01T02:13:15;98104.72;;;0.38;100.00
62712;BME280;48772;55.586;37.730;2023-02-01T02:15:48;98061.84;;;0.12;100.00
62712;BME280;48772;55.586;37.730;2023-02-01T02:19:19;98107.25;;;0.39;100.00
62712;BME280;48772;55.586;37.730;2023-02-01T02:21:39;98107.25;;;0.39;100.00
62712;BME280;48772;55.586;37.730;2023-02-01T02:29:54;98119.31;;;0.42;100.00
62712;BME280;48772;55.586;37.730;2023-02-01T02:35:32;98090.63;;;0.26;100.00
62712;BME280;48772;55.586;37.730;2023-02-01T02:38:17;98041.31;;;-0.08;100.00
62712;BME280;48772;55.586;37.730;2023-02-01T02:43:41;98124.88;;;0.37;100.00
62712;BME280;48772;55.586;37.730;2023-02-01T02:46:40;98110.84;;;0.24;100.00
62712;BME280;48772;55.586;37.730;2023-02-01T02:50:02;98130.22;;;0.36;100.00
62712;BME280;48772;55.586;37.730;2023-02-01T02:52:46;98129.63;;;0.31;100.00
62712;BME280;48772;55.586;37.730;2023-02-01T02:55:36;98089.19;;;0.08;100.00
62712;BME280;48772;55.586;37.730;2023-02-01T02:58:04;98108.41;;;0.21;100.00
62712;BME280;48772;55.586;37.730;2023-02-01T03:00:50;98090.94;;;0.08;100.00
62712;BME280;48772;55.586;37.730;2023-02-01T03:03:39;98077.06;;;-0.07;100.00
62712;BME280;48772;55.586;37.730;2023-02-01T03:06:24;98141.91;;;0.30;100.00
62712;BME280;48772;55.586;37.730;2023-02-01T03:08:51;98103.78;;;0.12;100.00
62712;BME280;48772;55.586;37.730;2023-02-01T03:11:20;98138.34;;;0.31;100.00
62712;BME280;48772;55.586;37.730;2023-02-01T03:21:25;98086.41;;;-0.03;100.00
62712;BME280;48772;55.586;37.730;2023-02-01T03:23:53;98117.59;;;0.14;100.00
62712;BME280;48772;55.586;37.730;2023-02-01T03:26:23;98130.03;;;0.25;100.00
62712;BME280;48772;55.586;37.730;2023-02-01T03:29:12;98091.63;;;-0.03;100.00
62712;BME280;48772;55.586;37.730;2023-02-01T03:31:42;98125.47;;;0.14;100.00
62712;BME280;48772;55.586;37.730;2023-02-01T03:34:08;98077.25;;;-0.10;100.00
62712;BME280;48772;55.586;37.730;2023-02-01T03:36:49;98123.59;;;0.16;100.00
62712;BME280;48772;55.586;37.730;2023-02-01T03:39:48;98127.25;;;0.14;100.00
62712;BME280;48772;55.586;37.730;2023-02-01T03:42:37;98109.66;;;0.01;100.00
62712;BME280;48772;55.586;37.730;2023-02-01T03:45:22;98111.66;;;-0.02;100.00
62712;BME280;48772;55.586;37.730;2023-02-01T03:47:52;98124.53;;;0.15;100.00
62712;BME280;48772;55.586;37.730;2023-02-01T03:50:24;98113.91;;;0.04;100.00
62712;BME280;48772;55.586;37.730;2023-02-01T03:52:59;98158.41;;;0.18;100.00
62712;BME280;48772;55.586;37.730;2023-02-01T03:55:28;98104.06;;;-0.07;100.00
62712;BME280;48772;55.586;37.730;2023-02-01T03:58:00;98136.88;;;0.13;100.00
62712;BME280;48772;55.586;37.730;2023-02-01T04:00:28;98136.69;;;0.16;100.00
62712;BME280;48772;55.586;37.730;2023-02-01T04:02:56;98142.31;;;0.10;100.00
62712;BME280;48772;55.586;37.730;2023-02-01T04:05:22;98130.16;;;0.09;100.00
62712;BME280;48772;55.586;37.730;2023-02-01T04:07:56;98159.16;;;0.20;100.00
62712;BME280;48772;55.586;37.730;2023-02-01T04:10:22;98164.56;;;0.17;100.00
62712;BME280;48772;55.586;37.730;2023-02-01T04:12:48;98120.38;;;-0.16;100.00
62712;BME280;48772;55.586;37.730;2023-02-01T04:15:14;98183.19;;;0.13;100.00
62712;BME280;48772;55.586;37.730;2023-02-01T04:17:40;98184.06;;;0.13;100.00
62712;BME280;48772;55.586;37.730;2023-02-01T04:20:06;98172.53;;;0.16;100.00
62712;BME280;48772;55.586;37.730;2023-02-01T04:22:32;98150.00;;;-0.01;100.00
62712;BME280;48772;55.586;37.730;2023-02-01T04:24:58;98167.03;;;0.06;100.00
62712;BME280;48772;55.586;37.730;2023-02-01T04:27:24;98149.34;;;-0.05;100.00
62712;BME280;48772;55.586;37.730;2023-02-01T04:29:49;98180.31;;;0.17;100.00
62712;BME280;48772;55.586;37.730;2023-02-01T04:32:16;98185.09;;;0.11;100.00
62712;BME280;48772;55.586;37.730;2023-02-01T04:34:42;98189.09;;;0.16;100.00
62712;BME280;48772;55.586;37.730;2023-02-01T04:37:08;98185.00;;;0.12;100.00
62712;BME280;48772;55.586;37.730;2023-02-01T04:39:33;98187.72;;;0.11;100.00
62712;BME280;48772;55.586;37.730;2023-02-01T04:41:59;98184.06;;;0.13;100.00
62712;BME280;48772;55.586;37.730;2023-02-01T04:44:25;98183.09;;;0.14;100.00
62712;BME280;48772;55.586;37.730;2023-02-01T04:46:51;98162.56;;;-0.06;100.00
62712;BME280;48772;55.586;37.730;2023-02-01T04:49:17;98187.97;;;0.06;100.00
62712;BME280;48772;55.586;37.730;2023-02-01T04:51:43;98169.91;;;0.01;100.00
62712;BME280;48772;55.586;37.730;2023-02-01T04:54:09;98187.97;;;0.06;100.00
62712;BME280;48772;55.586;37.730;2023-02-01T04:56:37;98203.88;;;0.17;100.00
62712;BME280;48772;55.586;37.730;2023-02-01T04:59:04;98187.97;;;0.06;100.00
62712;BME280;48772;55.586;37.730;2023-02-01T05:01:30;98176.59;;;-0.07;100.00
62712;BME280;48772;55.586;37.730;2023-02-01T05:03:56;98212.50;;;0.19;100.00
62712;BME280;48772;55.586;37.730;2023-02-01T05:06:22;98199.59;;;0.16;100.00
62712;BME280;48772;55.586;37.730;2023-02-01T05:08:48;98202.50;;;0.12;100.00
62712;BME280;48772;55.586;37.730;2023-02-01T05:11:14;98211.75;;;0.17;100.00
62712;BME280;48772;55.586;37.730;2023-02-01T05:13:59;98211.94;;;0.14;100.00
62712;BME280;48772;55.586;37.730;2023-02-01T05:16:26;98159.94;;;-0.20;100.00
62712;BME280;48772;55.586;37.730;2023-02-01T05:18:53;98202.50;;;0.12;100.00
62712;BME280;48772;55.586;37.730;2023-02-01T05:21:19;98189.28;;;-0.01;100.00
62712;BME280;48772;55.586;37.730;2023-02-01T05:23:45;98219.69;;;0.16;100.00
62712;BME280;48772;55.586;37.730;2023-02-01T05:26:38;98225.63;;;0.19;100.00
62712;BME280;48772;55.586;37.730;2023-02-01T05:29:05;98235.16;;;0.20;100.00
62712;BME280;48772;55.586;37.730;2023-02-01T05:31:31;98210.44;;;0.10;100.00
62712;BME280;48772;55.586;37.730;2023-02-01T05:33:56;98220.75;;;0.13;100.00
62712;BME280;48772;55.586;37.730;2023-02-01T05:36:22;98214.56;;;0.14;100.00
62712;BME280;48772;55.586;37.730;2023-02-01T05:38:48;98186.22;;;-0.08;100.00
62712;BME280;48772;55.586;37.730;2023-02-01T05:41:14;98179.22;;;-0.07;100.00
62712;BME280;48772;55.586;37.730;2023-02-01T05:43:40;98201.09;;;0.06;100.00
62712;BME280;48772;55.586;37.730;2023-02-01T05:46:05;98200.72;;;-0.02;100.00
62712;BME280;48772;55.586;37.730;2023-02-01T05:48:31;98177.22;;;-0.18;100.00
62712;BME280;48772;55.586;37.730;2023-02-01T05:50:57;98200.91;;;-0.05;100.00
62712;BME280;48772;55.586;37.730;2023-02-01T05:53:23;98225.69;;;0.03;100.00
62712;BME280;48772;55.586;37.730;2023-02-01T05:55:49;98237.94;;;0.17;100.00
62712;BME280;48772;55.586;37.730;2023-02-01T05:58:14;98215.41;;;0.00;100.00
62712;BME280;48772;55.586;37.730;2023-02-01T06:00:40;98209.13;;;0.03;100.00
62712;BME280;48772;55.586;37.730;2023-02-01T06:03:06;98228.41;;;0.16;100.00
62712;BME280;48772;55.586;37.730;2023-02-01T06:05:32;98222.63;;;0.11;100.00
62712;BME280;48772;55.586;37.730;2023-02-01T06:07:58;98198.47;;;-0.08;100.00
62712;BME280;48772;55.586;37.730;2023-02-01T06:10:24;98230.69;;;0.22;100.00
62712;BME280;48772;55.586;37.730;2023-02-01T06:12:49;98218.47;;;0.07;100.00
62712;BME280;48772;55.586;37.730;2023-02-01T06:15:16;98216.91;;;0.04;100.00
62712;BME280;48772;55.586;37.730;2023-02-01T06:17:44;98207.81;;;-0.04;100.00
62712;BME280;48772;55.586;37.730;2023-02-01T06:20:12;98221.31;;;0.04;100.00
62712;BME280;48772;55.586;37.730;2023-02-01T06:22:38;98221.84;;;-0.05;100.00
62712;BME280;48772;55.586;37.730;2023-02-01T06:25:05;98212.31;;;0.08;100.00
62712;BME280;48772;55.586;37.730;2023-02-01T06:27:32;98225.13;;;0.13;100.00
62712;BME280;48772;55.586;37.730;2023-02-01T06:29:58;98251.44;;;0.25;100.00
62712;BME280;48772;55.586;37.730;2023-02-01T06:32:24;98256.88;;;0.22;100.00
62712;BME280;48772;55.586;37.730;2023-02-01T06:34:50;98267.91;;;0.27;100.00
62712;BME280;48772;55.586;37.730;2023-02-01T06:37:19;98242.16;;;0.20;100.00
62712;BME280;48772;55.586;37.730;2023-02-01T06:39:44;98256.47;;;0.28;100.00
62712;BME280;48772;55.586;37.730;2023-02-01T06:42:10;98253.69;;;0.31;100.00
62712;BME280;48772;55.586;37.730;2023-02-01T06:44:36;98258.94;;;0.31;100.00
62712;BME280;48772;55.586;37.730;2023-02-01T06:47:05;98241.44;;;0.18;100.00
62712;BME280;48772;55.586;37.730;2023-02-01T06:49:31;98246.19;;;0.25;100.00
62712;BME280;48772;55.586;37.730;2023-02-01T06:51:57;98216.06;;;0.04;100.00
62712;BME280;48772;55.586;37.730;2023-02-01T06:54:26;98223.53;;;0.24;100.00
62712;BME280;48772;55.586;37.730;2023-02-01T06:56:52;98255.94;;;0.37;100.00
62712;BME280;48772;55.586;37.730;2023-02-01T06:59:18;98226.44;;;0.20;100.00
62712;BME280;48772;55.586;37.730;2023-02-01T07:01:43;98254.50;;;0.46;100.00
62712;BME280;48772;55.586;37.730;2023-02-01T07:04:13;98204.66;;;0.19;100.00
62712;BME280;48772;55.586;37.730;2023-02-01T07:06:41;98218.66;;;0.32;100.00
62712;BME280;48772;55.586;37.730;2023-02-01T07:09:06;98205.88;;;0.28;100.00
62712;BME280;48772;55.586;37.730;2023-02-01T07:11:32;98249.16;;;0.47;100.00
62712;BME280;48772;55.586;37.730;2023-02-01T07:13:58;98225.50;;;0.35;100.00
62712;BME280;48772;55.586;37.730;2023-02-01T07:16:25;98261.91;;;0.53;100.00
62712;BME280;48772;55.586;37.730;2023-02-01T07:18:52;98266.69;;;0.61;100.00
62712;BME280;48772;55.586;37.730;2023-02-01T07:21:19;98281.66;;;0.59;100.00
62712;BME280;48772;55.586;37.730;2023-02-01T07:23:45;98249.94;;;0.49;100.00
62712;BME280;48772;55.586;37.730;2023-02-01T07:26:12;98256.41;;;0.44;100.00
62712;BME280;48772;55.586;37.730;2023-02-01T07:28:39;98264.53;;;0.39;100.00
62712;BME280;48772;55.586;37.730;2023-02-01T07:31:10;98203.63;;;0.22;100.00
62712;BME280;48772;55.586;37.730;2023-02-01T07:33:36;98266.97;;;0.56;100.00
62712;BME280;48772;55.586;37.730;2023-02-01T07:36:04;98268.44;;;0.60;100.00
62712;BME280;48772;55.586;37.730;2023-02-01T07:38:30;98274.06;;;0.68;100.00
62712;BME280;48772;55.586;37.730;2023-02-01T07:40:58;98266.56;;;0.62;100.00
62712;BME280;48772;55.586;37.730;2023-02-01T07:43:24;98276.69;;;0.68;100.00
62712;BME280;48772;55.586;37.730;2023-02-01T07:45:53;98264.69;;;0.64;100.00
62712;BME280;48772;55.586;37.730;2023-02-01T07:48:21;98281.94;;;0.68;100.00
62712;BME280;48772;55.586;37.730;2023-02-01T07:50:57;98224.00;;;0.31;100.00
62712;BME280;48772;55.586;37.730;2023-02-01T07:53:24;98246.66;;;0.32;100.00
62712;BME280;48772;55.586;37.730;2023-02-01T07:55:50;98254.63;;;0.44;100.00
62712;BME280;48772;55.586;37.730;2023-02-01T07:58:17;98285.41;;;0.69;100.00
62712;BME280;48772;55.586;37.730;2023-02-01T08:00:44;98277.22;;;0.73;100.00
62712;BME280;48772;55.586;37.730;2023-02-01T08:03:29;98259.09;;;0.70;100.00
62712;BME280;48772;55.586;37.730;2023-02-01T08:06:03;98205.44;;;0.48;100.00
62712;BME280;48772;55.586;37.730;2023-02-01T08:08:32;98221.41;;;0.71;100.00
62712;BME280;48772;55.586;37.730;2023-02-01T08:10:59;98275.41;;;1.02;100.00
62712;BME280;48772;55.586;37.730;2023-02-01T08:13:26;98275.41;;;1.02;100.00
62712;BME280;48772;55.586;37.730;2023-02-01T08:15:52;98185.88;;;0.53;100.00
62712;BME280;48772;55.586;37.730;2023-02-01T08:18:18;98169.38;;;0.51;100.00
62712;BME280;48772;55.586;37.730;2023-02-01T08:20:47;98192.94;;;0.65;100.00
62712;BME280;48772;55.586;37.730;2023-02-01T08:23:13;98204.53;;;0.75;100.00
62712;BME280;48772;55.586;37.730;2023-02-01T08:25:39;98192.41;;;0.60;100.00
62712;BME280;48772;55.586;37.730;2023-02-01T08:28:06;98150.59;;;0.31;100.00
62712;BME280;48772;55.586;37.730;2023-02-01T08:30:33;98238.41;;;0.92;100.00
62712;BME280;48772;55.586;37.730;2023-02-01T08:32:59;98227.25;;;0.89;100.00
62712;BME280;48772;55.586;37.730;2023-02-01T08:35:26;98198.38;;;0.62;100.00
62712;BME280;48772;55.586;37.730;2023-02-01T08:37:52;98203.84;;;0.59;100.00
62712;BME280;48772;55.586;37.730;2023-02-01T08:40:21;98210.06;;;0.71;100.00
62712;BME280;48772;55.586;37.730;2023-02-01T08:42:47;98256.63;;;1.08;100.00
62712;BME280;48772;55.586;37.730;2023-02-01T08:45:18;98270.78;;;1.05;100.00
62712;BME280;48772;55.586;37.730;2023-02-01T08:47:45;98240.28;;;0.90;100.00
62712;BME280;48772;55.586;37.730;2023-02-01T08:50:15;98257.41;;;0.96;100.00
62712;BME280;48772;55.586;37.730;2023-02-01T08:52:41;98267.53;;;1.02;100.00
62712;BME280;48772;55.586;37.730;2023-02-01T08:55:09;98242.19;;;0.88;100.00
62712;BME280;48772;55.586;37.730;2023-02-01T08:57:35;98200.28;;;0.60;100.00
62712;BME280;48772;55.586;37.730;2023-02-01T09:00:02;98179.13;;;0.49;100.00
62712;BME280;48772;55.586;37.730;2023-02-01T09:02:30;98243.84;;;0.89;100.00
62712;BME280;48772;55.586;37.730;2023-02-01T09:04:56;98212.59;;;0.72;100.00
62712;BME280;48772;55.586;37.730;2023-02-01T09:07:22;98238.41;;;0.92;100.00
62712;BME280;48772;55.586;37.730;2023-02-01T09:09:48;98239.94;;;0.82;100.00
62712;BME280;48772;55.586;37.730;2023-02-01T09:12:14;98256.28;;;1.00;100.00
62712;BME280;48772;55.586;37.730;2023-02-01T09:14:39;98249.38;;;0.85;100.00
62712;BME280;48772;55.586;37.730;2023-02-01T09:17:05;98262.94;;;0.91;100.00
62712;BME280;48772;55.586;37.730;2023-02-01T09:19:31;98252.69;;;0.88;100.00
62712;BME280;48772;55.586;37.730;2023-02-01T09:21:58;98264.09;;;0.87;100.00
62712;BME280;48772;55.586;37.730;2023-02-01T09:24:24;98256.13;;;0.89;100.00
62712;BME280;48772;55.586;37.730;2023-02-01T09:26:50;98206.06;;;0.65;100.00
62712;BME280;48772;55.586;37.730;2023-02-01T09:29:17;98263.31;;;0.99;100.00
62712;BME280;48772;55.586;37.730;2023-02-01T09:31:43;98239.44;;;0.90;100.00
62712;BME280;48772;55.586;37.730;2023-02-01T09:34:09;98249.78;;;1.05;100.00
62712;BME280;48772;55.586;37.730;2023-02-01T09:36:37;98243.97;;;1.14;100.00
62712;BME280;48772;55.586;37.730;2023-02-01T09:39:03;98249.59;;;1.08;100.00
62712;BME280;48772;55.586;37.730;2023-02-01T09:41:48;98225.69;;;0.86;100.00
62712;BME280;48772;55.586;37.730;2023-02-01T09:47:01;98253.31;;;0.92;100.00
62712;BME280;48772;55.586;37.730;2023-02-01T09:49:30;98232.69;;;0.86;100.00
62712;BME280;48772;55.586;37.730;2023-02-01T09:51:59;98247.59;;;0.99;100.00
62712;BME280;48772;55.586;37.730;2023-02-01T09:54:29;98254.31;;;1.03;100.00
62712;BME280;48772;55.586;37.730;2023-02-01T09:57:08;98238.16;;;1.09;100.00
62712;BME280;48772;55.586;37.730;2023-02-01T09:59:43;98218.06;;;0.96;100.00
62712;BME280;48772;55.586;37.730;2023-02-01T10:02:24;98235.63;;;1.08;100.00
62712;BME280;48772;55.586;37.730;2023-02-01T10:04:55;98185.66;;;0.70;100.00
62712;BME280;48772;55.586;37.730;2023-02-01T10:07:34;98209.00;;;0.87;100.00
62712;BME280;48772;55.586;37.730;2023-02-01T10:10:07;98222.06;;;1.01;100.00
62712;BME280;48772;55.586;37.730;2023-02-01T10:17:48;98194.16;;;1.39;100.00
62712;BME280;48772;55.586;37.730;2023-02-01T10:25:59;98195.00;;;1.13;100.00
62712;BME280;48772;55.586;37.730;2023-02-01T10:28:30;98193.72;;;1.06;100.00
62712;BME280;48772;55.586;37.730;2023-02-01T10:30:59;98200.03;;;1.04;100.00
62712;BME280;48772;55.586;37.730;2023-02-01T10:33:36;98182.47;;;0.92;100.00
62712;BME280;48772;55.586;37.730;2023-02-01T10:36:13;98189.28;;;0.94;100.00
62712;BME280;48772;55.586;37.730;2023-02-01T10:38:43;98161.97;;;0.84;100.00
62712;BME280;48772;55.586;37.730;2023-02-01T10:41:14;98189.28;;;0.94;100.00
62712;BME280;48772;55.586;37.730;2023-02-01T10:43:43;98191.66;;;1.11;100.00
62712;BME280;48772;55.586;37.730;2023-02-01T10:46:10;98189.56;;;1.16;100.00
62712;BME280;48772;55.586;37.730;2023-02-01T10:48:37;98173.25;;;0.99;100.00
62712;BME280;48772;55.586;37.730;2023-02-01T10:51:12;98155.47;;;0.77;100.00
62712;BME280;48772;55.586;37.730;2023-02-01T10:53:53;98112.53;;;0.52;100.00
62712;BME280;48772;55.586;37.730;2023-02-01T10:56:23;98200.97;;;1.03;100.00
62712;BME280;48772;55.586;37.730;2023-02-01T10:58:50;98231.66;;;1.15;100.00
62712;BME280;48772;55.586;37.730;2023-02-01T11:01:28;98222.97;;;1.14;100.00
62712;BME280;48772;55.586;37.730;2023-02-01T11:03:58;98162.75;;;0.72;100.00
62712;BME280;48772;55.586;37.730;2023-02-01T11:06:37;98205.94;;;1.07;100.00
62712;BME280;48772;55.586;37.730;2023-02-01T11:11:54;98198.25;;;1.04;100.00
62712;BME280;48772;55.586;37.730;2023-02-01T11:14:30;98219.19;;;1.18;100.00
62712;BME280;48772;55.586;37.730;2023-02-01T11:17:00;98220.88;;;1.19;100.00
62712;BME280;48772;55.586;37.730;2023-02-01T11:19:27;98185.31;;;1.01;100.00
62712;BME280;48772;55.586;37.730;2023-02-01T11:21:55;98176.38;;;0.91;100.00
62712;BME280;48772;55.586;37.730;2023-02-01T11:24:28;98188.19;;;1.11;100.00
62712;BME280;48772;55.586;37.730;2023-02-01T11:27:00;98208.69;;;1.18;100.00
62712;BME280;48772;55.586;37.730;2023-02-01T11:29:36;98223.44;;;1.33;100.00
62712;BME280;48772;55.586;37.730;2023-02-01T11:32:04;98195.44;;;1.07;100.00
62712;BME280;48772;55.586;37.730;2023-02-01T11:34:38;98228.47;;;1.24;100.00
62712;BME280;48772;55.586;37.730;2023-02-01T11:37:16;98156.94;;;0.81;100.00
62712;BME280;48772;55.586;37.730;2023-02-01T11:39:56;98188.19;;;0.84;100.00
62712;BME280;48772;55.586;37.730;2023-02-01T11:42:23;98161.34;;;0.81;100.00
62712;BME280;48772;55.586;37.730;2023-02-01T11:44:49;98228.31;;;1.13;100.00
62712;BME280;48772;55.586;37.730;2023-02-01T11:49:46;98247.22;;;1.18;100.00
62712;BME280;48772;55.586;37.730;2023-02-01T12:04:10;98234.38;;;1.13;100.00
62712;BME280;48772;55.586;37.730;2023-02-01T12:09:38;98260.09;;;1.08;100.00
62712;BME280;48772;55.586;37.730;2023-02-01T12:12:28;98255.47;;;0.99;100.00
62712;BME280;48772;55.586;37.730;2023-02-01T12:32:28;98232.06;;;0.82;100.00
62712;BME280;48772;55.586;37.730;2023-02-01T12:43:51;98275.22;;;1.05;100.00
62712;BME280;48772;55.586;37.730;2023-02-01T12:46:14;98273.41;;;1.05;100.00
62712;BME280;48772;55.586;37.730;2023-02-01T12:51:36;98244.41;;;0.80;100.00
62712;BME280;48772;55.586;37.730;2023-02-01T12:54:29;98281.09;;;1.08;100.00
62712;BME280;48772;55.586;37.730;2023-02-01T12:57:03;98262.66;;;0.96;100.00
62712;BME280;48772;55.586;37.730;2023-02-01T12:59:51;98282.78;;;1.09;100.00
62712;BME280;48772;55.586;37.730;2023-02-01T13:02:40;98278.13;;;1.00;100.00
62712;BME280;48772;55.586;37.730;2023-02-01T13:05:20;98273.06;;;0.97;100.00
62712;BME280;48772;55.586;37.730;2023-02-01T13:07:55;98269.50;;;0.98;100.00
62712;BME280;48772;55.586;37.730;2023-02-01T13:13:04;98280.19;;;0.95;100.00
62712;BME280;48772;55.586;37.730;2023-02-01T13:15:42;98275.78;;;0.96;100.00
62712;BME280;48772;55.586;37.730;2023-02-01T13:18:14;98193.03;;;0.37;100.00
62712;BME280;48772;55.586;37.730;2023-02-01T13:21:04;98282.06;;;0.93;100.00
62712;BME280;48772;55.586;37.730;2023-02-01T13:23:38;98243.69;;;0.78;100.00
62712;BME280;48772;55.586;37.730;2023-02-01T13:26:05;98237.50;;;0.79;100.00
62712;BME280;48772;55.586;37.730;2023-02-01T13:41:56;98277.59;;;0.81;100.00
62712;BME280;48772;55.586;37.730;2023-02-01T13:44:40;98285.66;;;0.78;100.00
62712;BME280;48772;55.586;37.730;2023-02-01T13:47:22;98285.31;;;0.70;100.00
62712;BME280;48772;55.586;37.730;2023-02-01T13:49:50;98246.09;;;0.41;100.00
62712;BME280;48772;55.586;37.730;2023-02-01T13:52:29;98287.34;;;0.65;100.00
62712;BME280;48772;55.586;37.730;2023-02-01T13:55:15;98256.56;;;0.41;100.00
62712;BME280;48772;55.586;37.730;2023-02-01T13:57:50;98284.38;;;0.57;100.00
62712;BME280;48772;55.586;37.730;2023-02-01T14:00:31;98282.50;;;0.45;100.00
62712;BME280;48772;55.586;37.730;2023-02-01T14:13:19;98288.50;;;0.47;100.00
62712;BME280;48772;55.586;37.730;2023-02-01T14:23:45;98283.81;;;0.52;100.00
62712;BME280;48772;55.586;37.730;2023-02-01T14:26:18;98271.09;;;0.32;100.00
62712;BME280;48772;55.586;37.730;2023-02-01T14:28:57;98290.00;;;0.51;100.00
62712;BME280;48772;55.586;37.730;2023-02-01T14:31:40;98283.16;;;0.49;100.00
62712;BME280;48772;55.586;37.730;2023-02-01T14:34:16;98274.47;;;0.34;100.00
62712;BME280;48772;55.586;37.730;2023-02-01T14:36:58;98287.19;;;0.40;100.00
62712;BME280;48772;55.586;37.730;2023-02-01T14:39:49;98307.78;;;0.46;100.00
62712;BME280;48772;55.586;37.730;2023-02-01T14:44:45;98291.78;;;0.37;100.00
62712;BME280;48772;55.586;37.730;2023-02-01T14:52:22;98264.81;;;0.07;100.00
62712;BME280;48772;55.586;37.730;2023-02-01T14:54:55;98304.59;;;0.27;100.00
62712;BME280;48772;55.586;37.730;2023-02-01T14:57:25;98285.97;;;0.18;100.00
62712;BME280;48772;55.586;37.730;2023-02-01T14:59:59;98282.41;;;0.19;100.00
62712;BME280;48772;55.586;37.730;2023-02-01T15:02:36;98307.22;;;0.27;100.00
62712;BME280;48772;55.586;37.730;2023-02-01T15:07:58;98319.22;;;0.31;100.00
62712;BME280;48772;55.586;37.730;2023-02-01T15:10:26;98260.13;;;-0.03;100.00
62712;BME280;48772;55.586;37.730;2023-02-01T15:12:53;98315.81;;;0.29;100.00
62712;BME280;48772;55.586;37.730;2023-02-01T15:15:22;98317.53;;;0.30;100.00
62712;BME280;48772;55.586;37.730;2023-02-01T15:17:55;98323.69;;;0.29;100.00
62712;BME280;48772;55.586;37.730;2023-02-01T15:20:26;98299.69;;;0.07;100.00